Flight Track Log - Related Links

Times and Time Zones

All times are in EDT time to prevent confusion due to time zone crossing. See the UAL481 flight status page for this flight to view local times or setup timezone preferences in your user account.

Time Position Orientation Groundspeed Altitude Reporting Facility
EDT Latitude Longitude Course Direction KTS MPH feet Rate Location/Type
Fri 06:29:51 PM 42.7672 -73.8061 324° Northwest 160 184 1,200  Level Boston Center
Fri 06:30:22 PM 42.7944 -73.8039 North 174 200 2,300 1,976 Climbing Boston Center
Fri 06:31:16 PM 42.8492 -73.7683 25° Northeast 283 326 4,000 2,504 Climbing Boston Center
Fri 06:32:17 PM 42.9028 -73.8119 329° Northwest 253 291 7,100 3,295 Climbing Boston Center
Fri 06:33:00 PM 42.8279 -74.3031 284° West  Level FlightAware Approximate
Fri 06:33:18 PM 42.9536 -73.9067 306° West 245 282 10,700  Level Boston Center
Fri 06:34:00 PM 42.8496 -74.4308 283° West  Level FlightAware Approximate
Fri 06:34:16 PM 43.0086 -74.0017 308° West 289 333 12,100  Level Boston Center
Fri 06:35:00 PM 42.8820 -74.5487 324° Northwest  Level FlightAware Approximate
Fri 06:35:16 PM 43.0697 -74.1056 309° West 349 402 14,800  Level Boston Center
Fri 06:36:18 PM 43.1139 -74.2178 298° West 351 404 18,300 3,050 Climbing Boston Center
Fri 06:37:16 PM 43.1247 -74.3261 278° West 328 377 20,900 1,983 Climbing Boston Center
Fri 06:38:16 PM 43.1353 -74.4431 277° West 323 372 22,200 934 Climbing Boston Center
Fri 06:39:18 PM 43.1369 -74.5742 271° West 328 377 22,800 738 Climbing Boston Center
Fri 06:40:18 PM 43.1403 -74.7194 272° West 358 412 23,700 1,271 Climbing Boston Center
Fri 06:41:16 PM 43.1414 -74.8731 271° West 386 444 25,300 1,450 Climbing Boston Center
Fri 06:42:18 PM 43.1422 -75.0267 270° West 400 460 26,600 1,200 Climbing Boston Center
Fri 06:43:16 PM 43.1444 -75.1978 271° West 406 467 27,700 661 Climbing Boston Center
Fri 06:44:16 PM 43.1447 -75.3486 270° West 406 467 27,900 99 Climbing Boston Center
Fri 06:45:17 PM 43.1450 -75.4994 270° West 400 460 27,900  Level Boston Center
Fri 06:46:29 PM 43.1472 -75.6503 271° West 400 460 27,900  Level Boston Center
Fri 06:47:30 PM 43.1481 -75.8325 270° West 400 460 27,900 414 Level Boston Center
Fri 06:49:23 PM 43.1333 -76.0833 265° West 400 460 29,100 728 Climbing Toronto Center
Fri 06:50:23 PM 43.1333 -76.2333 270° West 390 449 30,000 400 Climbing Toronto Center
Fri 06:51:23 PM 43.1333 -76.3833 270° West 390 449 29,900 -50 Descending Toronto Center
Fri 06:52:23 PM 43.1333 -76.5500 270° West 390 449 29,900 50 Level Toronto Center
Fri 06:53:23 PM 43.1500 -76.6833 280° West 390 449 30,000 50 Climbing Toronto Center
Fri 06:54:23 PM 43.1333 -76.8500 262° West 390 449 30,000 550 Level Toronto Center
Fri 06:55:23 PM 43.1167 -76.9833 260° West 390 449 31,100 1,350 Climbing Toronto Center
Fri 06:56:23 PM 43.0833 -77.1167 251° West 390 449 32,700 1,550 Climbing Toronto Center
Fri 06:57:23 PM 43.0667 -77.2667 261° West 370 426 34,200 1,350 Climbing Toronto Center
Fri 06:58:23 PM 43.0833 -77.4167 279° West 370 426 35,400 900 Climbing Toronto Center
Fri 06:59:23 PM 43.0833 -77.5500 270° West 370 426 36,000 250 Climbing Toronto Center
Fri 07:00:23 PM 43.0667 -77.7000 261° West 370 426 35,900 -50 Descending Toronto Center
Fri 07:01:23 PM 43.0667 -77.8333 270° West 370 426 35,900  Level Toronto Center
Fri 07:02:23 PM 43.0667 -77.9667 270° West 370 426 35,900  Level Toronto Center
Fri 07:03:23 PM 43.0667 -78.1000 270° West 370 426 35,900 50 Level Toronto Center
Fri 07:04:23 PM 43.0667 -78.2333 270° West 370 426 36,000 50 Climbing Toronto Center
Fri 07:05:23 PM 43.0667 -78.3833 270° West 370 426 36,000  Level Toronto Center
Fri 07:06:23 PM 43.0833 -78.5167 280° West 360 414 36,000 -50 Level Toronto Center
Fri 07:07:23 PM 43.0833 -78.6500 270° West 360 414 35,900 -50 Descending Toronto Center
Fri 07:08:23 PM 43.0667 -78.7833 260° West 360 414 35,900 50 Level Toronto Center
Fri 07:09:23 PM 43.0667 -78.9333 270° West 360 414 36,000 50 Climbing Toronto Center
Fri 07:10:23 PM 43.0667 -79.0667 270° West 360 414 36,000  Level Toronto Center
Fri 07:11:23 PM 43.0667 -79.2000 270° West 360 414 36,000 -50 Level Toronto Center
Fri 07:12:23 PM 43.0667 -79.3333 270° West 360 414 35,900 -50 Descending Toronto Center
Fri 07:13:23 PM 43.0667 -79.4667 270° West 370 426 35,900  Level Toronto Center
Fri 07:14:23 PM 43.0667 -79.6333 270° West 360 414 35,900 50 Level Toronto Center
Fri 07:15:23 PM 43.0667 -79.7667 270° West 370 426 36,000 50 Climbing Toronto Center
Fri 07:16:23 PM 43.0500 -79.9000 260° West 370 426 36,000  Level Toronto Center
Fri 07:17:23 PM 43.0500 -80.0500 270° West 370 426 36,000 -50 Level Toronto Center
Fri 07:18:23 PM 43.0500 -80.1833 270° West 370 426 35,900 -50 Descending Toronto Center
Fri 07:19:23 PM 43.0500 -80.3167 270° West 360 414 35,900  Level Toronto Center
Fri 07:20:23 PM 43.0500 -80.4500 270° West 360 414 35,900  Level Toronto Center
Fri 07:21:23 PM 43.0500 -80.5833 270° West 360 414 35,900 50 Level Toronto Center
Fri 07:22:23 PM 43.0500 -80.7333 270° West 360 414 36,000 50 Climbing Toronto Center
Fri 07:23:23 PM 43.0167 -80.8667 251° West 370 426 36,000  Level Toronto Center
Fri 07:24:23 PM 43.0167 -81.0000 270° West 360 414 36,000 -50 Level Toronto Center
Fri 07:25:23 PM 43.0167 -81.1333 270° West 360 414 35,900 -50 Descending Toronto Center
Fri 07:26:23 PM 43.0167 -81.3000 270° West 360 414 35,900  Level Toronto Center
Fri 07:27:23 PM 43.0167 -81.4167 270° West 360 414 35,900  Level Toronto Center
Fri 07:28:23 PM 43.0167 -81.5667 270° West 360 414 35,900  Level Toronto Center
Fri 07:29:23 PM 43.0167 -81.6833 270° West 360 414 35,900 50 Level Toronto Center
Fri 07:30:23 PM 43.0167 -81.8167 270° West 360 414 36,000 50 Climbing Toronto Center
Fri 07:31:23 PM 43.0000 -81.9667 261° West 360 414 36,000 -50 Level Toronto Center
Fri 07:32:23 PM 43.0000 -82.1000 270° West 360 414 35,900 -50 Descending Toronto Center
Fri 07:33:23 PM 43.0000 -82.2500 270° West 360 414 35,900 -400 Level Toronto Center
Fri 07:34:23 PM 43.0000 -82.3667 270° West 360 414 35,100 -900 Descending Toronto Center
Fri 07:35:23 PM 43.0000 -82.5000 270° West 360 414 34,100 -600 Descending Toronto Center
Fri 07:36:23 PM 42.9833 -82.6667 262° West 370 426 33,900 -50 Descending Toronto Center
Fri 07:37:23 PM 42.9833 -82.8000 270° West 380 437 34,000 -350 Climbing Toronto Center
Fri 07:38:23 PM 42.9833 -82.9333 270° West 370 426 33,200 -900 Descending Toronto Center
Fri 07:39:23 PM 42.9833 -83.0667 270° West 380 437 32,200 -1,000 Descending Toronto Center
Fri 07:40:23 PM 42.9667 -83.2333 262° West 380 437 31,200 -1,000 Descending Toronto Center
Fri 07:41:23 PM 42.9667 -83.3667 270° West 390 449 30,200 -650 Descending Toronto Center
Fri 07:42:23 PM 42.9667 -83.5333 270° West 380 437 29,900 -143 Descending Toronto Center
Fri 07:43:29 PM 42.9664 -83.6931 270° West 384 442 29,900  Level Cleveland Center
Fri 07:44:29 PM 42.9561 -83.8400 265° West 384 442 29,900  Level Cleveland Center
Fri 07:45:29 PM 42.9414 -83.9925 263° West 389 448 29,900 50 Level Cleveland Center
Fri 07:46:29 PM 42.9264 -84.1392 262° West 394 453 30,000  Climbing Cleveland Center
Fri 07:47:07 PM 42.9194 -84.2275 264° West 398 458 29,900 -60 Descending Chicago Center
Fri 07:48:09 PM 42.9053 -84.3781 263° West 401 461 29,900  Level Chicago Center
Fri 07:49:11 PM 42.8894 -84.5281 262° West 402 463 29,900  Level Chicago Center
Fri 07:50:13 PM 42.8747 -84.6781 262° West 400 460 29,900  Level Chicago Center
Fri 07:51:15 PM 42.8586 -84.8272 262° West 399 459 29,900 48 Level Chicago Center
Fri 07:52:17 PM 42.8433 -84.9792 262° West 403 464 30,000 48 Climbing Chicago Center
Fri 07:53:20 PM 42.8231 -85.1611 261° West 403 464 30,000 -432 Level Chicago Center
Fri 07:54:22 PM 42.8072 -85.3097 262° West 399 459 29,100 -1,452 Descending Chicago Center
Fri 07:55:24 PM 42.7903 -85.4633 262° West 408 470 27,000 -1,887 Descending Chicago Center
Fri 07:56:26 PM 42.7653 -85.6131 257° West 406 467 25,200 -1,694 Descending Chicago Center
Fri 07:57:28 PM 42.7389 -85.7564 256° West 392 451 23,500 -1,548 Descending Chicago Center
Fri 07:58:30 PM 42.7144 -85.8997 257° West 388 447 22,000 -1,452 Descending Chicago Center
Fri 07:59:32 PM 42.6889 -86.0372 256° West 378 435 20,500 -968 Descending Chicago Center
Fri 08:00:34 PM 42.6592 -86.2003 256° West 371 427 20,000 -242 Descending Chicago Center
Fri 08:01:36 PM 42.6336 -86.3336 255° West 366 421 20,000 -387 Level Chicago Center
Fri 08:02:38 PM 42.6083 -86.4672 256° West 366 421 19,200 -1,248 Descending Chicago Center
Fri 08:03:41 PM 42.5833 -86.6000 256° West 364 419 17,400 -1,824 Descending Chicago Center
Fri 08:04:43 PM 42.5589 -86.7314 256° West 361 415 15,400 -1,935 Descending Chicago Center
Fri 08:05:45 PM 42.5256 -86.8553 250° West 353 406 13,400 -2,129 Descending Chicago Center
Fri 08:06:47 PM 42.4872 -86.9975 250° West 336 387 11,000 -1,645 Descending Chicago Center
Fri 08:07:49 PM 42.4542 -87.1133 249° West 330 380 10,000 -532 Descending Chicago Center
Fri 08:08:51 PM 42.4247 -87.2228 250° West 309 356 9,900 -484 Descending Chicago Center
Fri 08:09:53 PM 42.3661 -87.2761 214° Southwest 296 341 9,000 -435 Descending Chicago Center
Fri 08:10:55 PM 42.2697 -87.2822 183° South 296 341 9,000 -532 Level Chicago Center
Fri 08:11:57 PM 42.1900 -87.2878 183° South 290 334 7,900 -968 Descending Chicago Center
Fri 08:12:59 PM 42.1133 -87.3017 188° South 283 326 7,000 -432 Descending Chicago Center
Fri 08:14:02 PM 42.0383 -87.3269 194° South 280 322 7,000  Level Chicago Center
Fri 08:15:04 PM 41.9989 -87.3842 227° Southwest 228 262 7,000 -48 Level Chicago Center
Fri 08:16:06 PM 41.9811 -87.4603 253° West 215 247 6,900 -677 Descending Chicago Center
Fri 08:17:08 PM 41.9828 -87.5481 271° West 198 228 5,600 -1,113 Descending Chicago Center
Fri 08:18:10 PM 41.9831 -87.6147 270° West 183 211 4,600 -1,016 Descending Chicago Center
Fri 08:19:12 PM 41.9839 -87.6858 271° West 188 216 3,500 -968 Descending Chicago Center
Fri 08:20:14 PM 41.9844 -87.7542 271° West 189 217 2,600 -919 Descending Chicago Center
Fri 08:21:16 PM 41.9842 -87.8303 270° West 181 208 1,600 -677 Descending Chicago Center
Fri 08:22:18 PM 41.9839 -87.8697 269° West 158 182 1,200 -387 Descending Chicago Center

Login

Don't have an account? Register now (free) for customized features, flight alerts, and more!